sensor_id;sensor_type;location;lat;lon;timestamp;pressure;altitude;pressure_sealevel;temperature
14023;BMP180;7086;48.116;11.580;2023-11-19T00:01:06;95342.00;;;9.10
14023;BMP180;7086;48.116;11.580;2023-11-19T00:03:53;95333.00;;;9.20
14023;BMP180;7086;48.116;11.580;2023-11-19T00:06:40;95324.00;;;9.20
14023;BMP180;7086;48.116;11.580;2023-11-19T00:09:08;95322.00;;;9.10
14023;BMP180;7086;48.116;11.580;2023-11-19T00:11:35;95327.00;;;9.20
14023;BMP180;7086;48.116;11.580;2023-11-19T00:14:01;95320.00;;;9.30
14023;BMP180;7086;48.116;11.580;2023-11-19T00:16:29;95318.00;;;9.30
14023;BMP180;7086;48.116;11.580;2023-11-19T00:18:57;95286.00;;;9.30
14023;BMP180;7086;48.116;11.580;2023-11-19T00:21:24;95293.00;;;9.30
14023;BMP180;7086;48.116;11.580;2023-11-19T00:23:54;95276.00;;;9.30
14023;BMP180;7086;48.116;11.580;2023-11-19T00:26:25;95300.00;;;9.40
14023;BMP180;7086;48.116;11.580;2023-11-19T00:28:51;95281.00;;;9.40
14023;BMP180;7086;48.116;11.580;2023-11-19T00:31:18;95275.00;;;9.30
14023;BMP180;7086;48.116;11.580;2023-11-19T00:33:45;95283.00;;;9.50
14023;BMP180;7086;48.116;11.580;2023-11-19T00:36:12;95284.00;;;9.60
14023;BMP180;7086;48.116;11.580;2023-11-19T00:38:38;95273.00;;;9.60
14023;BMP180;7086;48.116;11.580;2023-11-19T00:41:05;95255.00;;;9.60
14023;BMP180;7086;48.116;11.580;2023-11-19T00:43:33;95274.00;;;9.60
14023;BMP180;7086;48.116;11.580;2023-11-19T00:46:00;95269.00;;;9.60
14023;BMP180;7086;48.116;11.580;2023-11-19T00:48:28;95271.00;;;9.70
14023;BMP180;7086;48.116;11.580;2023-11-19T00:50:54;95245.00;;;9.70
14023;BMP180;7086;48.116;11.580;2023-11-19T00:53:21;95263.00;;;9.70
14023;BMP180;7086;48.116;11.580;2023-11-19T00:55:48;95256.00;;;9.80
14023;BMP180;7086;48.116;11.580;2023-11-19T00:58:14;95179.00;;;9.70
14023;BMP180;7086;48.116;11.580;2023-11-19T01:00:44;95260.00;;;9.80
14023;BMP180;7086;48.116;11.580;2023-11-19T01:03:11;95261.00;;;9.80
14023;BMP180;7086;48.116;11.580;2023-11-19T01:05:38;95256.00;;;9.90
14023;BMP180;7086;48.116;11.580;2023-11-19T01:08:04;95236.00;;;9.70
14023;BMP180;7086;48.116;11.580;2023-11-19T01:10:31;95255.00;;;9.90
14023;BMP180;7086;48.116;11.580;2023-11-19T01:12:59;95253.00;;;10.00
14023;BMP180;7086;48.116;11.580;2023-11-19T01:15:26;95256.00;;;10.00
14023;BMP180;7086;48.116;11.580;2023-11-19T01:17:54;95248.00;;;10.00
14023;BMP180;7086;48.116;11.580;2023-11-19T01:20:21;95242.00;;;10.00
14023;BMP180;7086;48.116;11.580;2023-11-19T01:22:47;95254.00;;;9.90
14023;BMP180;7086;48.116;11.580;2023-11-19T01:25:15;95258.00;;;9.90
14023;BMP180;7086;48.116;11.580;2023-11-19T01:27:42;95239.00;;;10.00
14023;BMP180;7086;48.116;11.580;2023-11-19T01:30:10;95237.00;;;10.10
14023;BMP180;7086;48.116;11.580;2023-11-19T01:32:38;95245.00;;;10.10
14023;BMP180;7086;48.116;11.580;2023-11-19T01:35:07;95209.00;;;10.10
14023;BMP180;7086;48.116;11.580;2023-11-19T01:37:34;95232.00;;;10.20
14023;BMP180;7086;48.116;11.580;2023-11-19T01:40:01;95226.00;;;10.20
14023;BMP180;7086;48.116;11.580;2023-11-19T01:42:29;95210.00;;;10.20
14023;BMP180;7086;48.116;11.580;2023-11-19T01:45:00;95227.00;;;10.20
14023;BMP180;7086;48.116;11.580;2023-11-19T01:47:28;95205.00;;;10.30
14023;BMP180;7086;48.116;11.580;2023-11-19T01:49:56;95222.00;;;10.30
14023;BMP180;7086;48.116;11.580;2023-11-19T01:52:25;95212.00;;;10.30
14023;BMP180;7086;48.116;11.580;2023-11-19T01:54:53;95215.00;;;10.40
14023;BMP180;7086;48.116;11.580;2023-11-19T01:57:22;95222.00;;;10.40
14023;BMP180;7086;48.116;11.580;2023-11-19T01:59:50;95216.00;;;10.50
14023;BMP180;7086;48.116;11.580;2023-11-19T02:02:18;95205.00;;;10.50
14023;BMP180;7086;48.116;11.580;2023-11-19T02:04:46;95198.00;;;10.60
14023;BMP180;7086;48.116;11.580;2023-11-19T02:07:14;95192.00;;;10.60
14023;BMP180;7086;48.116;11.580;2023-11-19T02:09:44;95150.00;;;10.60
14023;BMP180;7086;48.116;11.580;2023-11-19T02:12:11;95187.00;;;10.60
14023;BMP180;7086;48.116;11.580;2023-11-19T02:14:38;95179.00;;;10.70
14023;BMP180;7086;48.116;11.580;2023-11-19T02:17:05;95160.00;;;10.70
14023;BMP180;7086;48.116;11.580;2023-11-19T02:19:32;95153.00;;;10.70
14023;BMP180;7086;48.116;11.580;2023-11-19T02:21:59;95104.00;;;10.80
14023;BMP180;7086;48.116;11.580;2023-11-19T02:24:29;95153.00;;;10.90
14023;BMP180;7086;48.116;11.580;2023-11-19T02:27:02;95159.00;;;10.80
14023;BMP180;7086;48.116;11.580;2023-11-19T02:29:32;95145.00;;;10.90
14023;BMP180;7086;48.116;11.580;2023-11-19T02:32:00;95137.00;;;11.00
14023;BMP180;7086;48.116;11.580;2023-11-19T02:34:28;95089.00;;;11.00
14023;BMP180;7086;48.116;11.580;2023-11-19T02:36:55;95129.00;;;11.10
14023;BMP180;7086;48.116;11.580;2023-11-19T02:39:22;95063.00;;;11.10
14023;BMP180;7086;48.116;11.580;2023-11-19T02:41:49;95127.00;;;11.20
14023;BMP180;7086;48.116;11.580;2023-11-19T02:44:18;95099.00;;;11.30
14023;BMP180;7086;48.116;11.580;2023-11-19T02:46:46;95126.00;;;11.30
14023;BMP180;7086;48.116;11.580;2023-11-19T02:49:14;95122.00;;;11.30
14023;BMP180;7086;48.116;11.580;2023-11-19T02:51:40;95106.00;;;11.30
14023;BMP180;7086;48.116;11.580;2023-11-19T02:54:07;95116.00;;;11.40
14023;BMP180;7086;48.116;11.580;2023-11-19T02:56:35;95085.00;;;11.50
14023;BMP180;7086;48.116;11.580;2023-11-19T02:59:02;95107.00;;;11.60
14023;BMP180;7086;48.116;11.580;2023-11-19T03:01:34;95093.00;;;11.60
14023;BMP180;7086;48.116;11.580;2023-11-19T03:04:03;95094.00;;;11.60
14023;BMP180;7086;48.116;11.580;2023-11-19T03:06:30;95092.00;;;11.70
14023;BMP180;7086;48.116;11.580;2023-11-19T03:08:57;95092.00;;;11.50
14023;BMP180;7086;48.116;11.580;2023-11-19T03:11:24;95077.00;;;11.70
14023;BMP180;7086;48.116;11.580;2023-11-19T03:13:51;95045.00;;;11.80
14023;BMP180;7086;48.116;11.580;2023-11-19T03:16:17;95080.00;;;11.80
14023;BMP180;7086;48.116;11.580;2023-11-19T03:18:44;95084.00;;;11.90
14023;BMP180;7086;48.116;11.580;2023-11-19T03:21:12;95074.00;;;11.90
14023;BMP180;7086;48.116;11.580;2023-11-19T03:23:39;95088.00;;;11.90
14023;BMP180;7086;48.116;11.580;2023-11-19T03:26:06;94982.00;;;12.00
14023;BMP180;7086;48.116;11.580;2023-11-19T03:28:34;95089.00;;;12.00
14023;BMP180;7086;48.116;11.580;2023-11-19T03:31:01;95077.00;;;12.00
14023;BMP180;7086;48.116;11.580;2023-11-19T03:33:31;95078.00;;;12.00
14023;BMP180;7086;48.116;11.580;2023-11-19T03:35:58;95079.00;;;12.00
14023;BMP180;7086;48.116;11.580;2023-11-19T03:38:26;95077.00;;;12.10
14023;BMP180;7086;48.116;11.580;2023-11-19T03:40:53;95047.00;;;12.10
14023;BMP180;7086;48.116;11.580;2023-11-19T03:43:20;95024.00;;;11.90
14023;BMP180;7086;48.116;11.580;2023-11-19T03:45:47;95084.00;;;12.10
14023;BMP180;7086;48.116;11.580;2023-11-19T03:48:14;95076.00;;;12.10
14023;BMP180;7086;48.116;11.580;2023-11-19T03:50:42;95090.00;;;12.20
14023;BMP180;7086;48.116;11.580;2023-11-19T03:53:09;95088.00;;;12.20
14023;BMP180;7086;48.116;11.580;2023-11-19T03:55:37;95059.00;;;12.20
14023;BMP180;7086;48.116;11.580;2023-11-19T03:58:04;95058.00;;;12.20
14023;BMP180;7086;48.116;11.580;2023-11-19T04:00:30;95060.00;;;12.30
14023;BMP180;7086;48.116;11.580;2023-11-19T04:02:57;95083.00;;;12.30
14023;BMP180;7086;48.116;11.580;2023-11-19T04:05:24;95072.00;;;12.30
14023;BMP180;7086;48.116;11.580;2023-11-19T04:07:50;95065.00;;;12.20
14023;BMP180;7086;48.116;11.580;2023-11-19T04:10:17;95078.00;;;12.40
14023;BMP180;7086;48.116;11.580;2023-11-19T04:12:45;95077.00;;;12.30
14023;BMP180;7086;48.116;11.580;2023-11-19T04:15:14;95015.00;;;12.40
14023;BMP180;7086;48.116;11.580;2023-11-19T04:17:41;95085.00;;;12.50
14023;BMP180;7086;48.116;11.580;2023-11-19T04:20:09;95061.00;;;12.50
14023;BMP180;7086;48.116;11.580;2023-11-19T04:22:38;95090.00;;;12.50
14023;BMP180;7086;48.116;11.580;2023-11-19T04:25:06;95083.00;;;12.60
14023;BMP180;7086;48.116;11.580;2023-11-19T04:27:32;95060.00;;;12.60
14023;BMP180;7086;48.116;11.580;2023-11-19T04:30:01;95060.00;;;12.60
14023;BMP180;7086;48.116;11.580;2023-11-19T04:32:29;95093.00;;;12.60
14023;BMP180;7086;48.116;11.580;2023-11-19T04:34:55;95094.00;;;12.70
14023;BMP180;7086;48.116;11.580;2023-11-19T04:37:22;95100.00;;;12.70
14023;BMP180;7086;48.116;11.580;2023-11-19T04:39:49;95077.00;;;12.80
14023;BMP180;7086;48.116;11.580;2023-11-19T04:42:16;95090.00;;;12.80
14023;BMP180;7086;48.116;11.580;2023-11-19T04:44:43;95103.00;;;12.90
14023;BMP180;7086;48.116;11.580;2023-11-19T04:47:11;95061.00;;;12.90
14023;BMP180;7086;48.116;11.580;2023-11-19T04:49:40;95046.00;;;13.00
14023;BMP180;7086;48.116;11.580;2023-11-19T04:52:08;95082.00;;;13.00
14023;BMP180;7086;48.116;11.580;2023-11-19T04:54:40;95057.00;;;13.10
14023;BMP180;7086;48.116;11.580;2023-11-19T04:57:07;95064.00;;;13.20
14023;BMP180;7086;48.116;11.580;2023-11-19T04:59:36;95075.00;;;13.20
14023;BMP180;7086;48.116;11.580;2023-11-19T05:02:03;95063.00;;;13.30
14023;BMP180;7086;48.116;11.580;2023-11-19T05:04:31;95071.00;;;13.40
14023;BMP180;7086;48.116;11.580;2023-11-19T05:06:58;95088.00;;;13.50
14023;BMP180;7086;48.116;11.580;2023-11-19T05:09:25;95097.00;;;13.60
14023;BMP180;7086;48.116;11.580;2023-11-19T05:11:52;95101.00;;;13.60
14023;BMP180;7086;48.116;11.580;2023-11-19T05:14:19;95089.00;;;13.70
14023;BMP180;7086;48.116;11.580;2023-11-19T05:16:47;95100.00;;;13.70
14023;BMP180;7086;48.116;11.580;2023-11-19T05:19:14;95099.00;;;13.70
14023;BMP180;7086;48.116;11.580;2023-11-19T05:21:43;95089.00;;;13.90
14023;BMP180;7086;48.116;11.580;2023-11-19T05:24:10;95080.00;;;13.90
14023;BMP180;7086;48.116;11.580;2023-11-19T05:26:38;95100.00;;;13.80
14023;BMP180;7086;48.116;11.580;2023-11-19T05:29:04;95104.00;;;14.00
14023;BMP180;7086;48.116;11.580;2023-11-19T05:31:31;95070.00;;;14.10
14023;BMP180;7086;48.116;11.580;2023-11-19T05:33:58;95135.00;;;14.10
14023;BMP180;7086;48.116;11.580;2023-11-19T05:36:25;95099.00;;;14.10
14023;BMP180;7086;48.116;11.580;2023-11-19T05:38:54;95098.00;;;14.20
14023;BMP180;7086;48.116;11.580;2023-11-19T05:41:21;95120.00;;;14.20
14023;BMP180;7086;48.116;11.580;2023-11-19T05:43:48;95120.00;;;14.20
14023;BMP180;7086;48.116;11.580;2023-11-19T05:46:14;95127.00;;;14.20
14023;BMP180;7086;48.116;11.580;2023-11-19T05:48:42;95130.00;;;14.20
14023;BMP180;7086;48.116;11.580;2023-11-19T05:51:09;95134.00;;;14.20
14023;BMP180;7086;48.116;11.580;2023-11-19T05:53:35;95129.00;;;14.30
14023;BMP180;7086;48.116;11.580;2023-11-19T05:56:04;95125.00;;;14.30
14023;BMP180;7086;48.116;11.580;2023-11-19T05:58:35;95104.00;;;14.30
14023;BMP180;7086;48.116;11.580;2023-11-19T06:01:03;95123.00;;;14.30
14023;BMP180;7086;48.116;11.580;2023-11-19T06:03:32;95131.00;;;14.30
14023;BMP180;7086;48.116;11.580;2023-11-19T06:05:59;95130.00;;;14.30
14023;BMP180;7086;48.116;11.580;2023-11-19T06:08:26;95117.00;;;14.30
14023;BMP180;7086;48.116;11.580;2023-11-19T06:10:53;95113.00;;;14.40
14023;BMP180;7086;48.116;11.580;2023-11-19T06:13:21;95108.00;;;14.30
14023;BMP180;7086;48.116;11.580;2023-11-19T06:15:49;95125.00;;;14.40
14023;BMP180;7086;48.116;11.580;2023-11-19T06:18:16;95136.00;;;14.30
14023;BMP180;7086;48.116;11.580;2023-11-19T06:20:45;95125.00;;;14.40
14023;BMP180;7086;48.116;11.580;2023-11-19T06:23:12;95125.00;;;14.40
14023;BMP180;7086;48.116;11.580;2023-11-19T06:25:38;95129.00;;;14.40
14023;BMP180;7086;48.116;11.580;2023-11-19T06:28:05;95114.00;;;14.40
14023;BMP180;7086;48.116;11.580;2023-11-19T06:30:33;95125.00;;;14.30
14023;BMP180;7086;48.116;11.580;2023-11-19T06:33:01;95121.00;;;14.50
14023;BMP180;7086;48.116;11.580;2023-11-19T06:35:28;95112.00;;;14.40
14023;BMP180;7086;48.116;11.580;2023-11-19T06:38:01;95121.00;;;14.40
14023;BMP180;7086;48.116;11.580;2023-11-19T06:40:28;95107.00;;;14.40
14023;BMP180;7086;48.116;11.580;2023-11-19T06:42:55;95122.00;;;14.50
14023;BMP180;7086;48.116;11.580;2023-11-19T06:45:22;95131.00;;;14.50
14023;BMP180;7086;48.116;11.580;2023-11-19T06:47:50;95125.00;;;14.40
14023;BMP180;7086;48.116;11.580;2023-11-19T06:50:17;95090.00;;;14.50
14023;BMP180;7086;48.116;11.580;2023-11-19T06:52:44;95154.00;;;14.60
14023;BMP180;7086;48.116;11.580;2023-11-19T06:55:11;95144.00;;;14.60
14023;BMP180;7086;48.116;11.580;2023-11-19T06:57:38;95141.00;;;14.60
14023;BMP180;7086;48.116;11.580;2023-11-19T07:00:06;95127.00;;;14.60
14023;BMP180;7086;48.116;11.580;2023-11-19T07:02:34;95139.00;;;14.60
14023;BMP180;7086;48.116;11.580;2023-11-19T07:05:02;95133.00;;;14.60
14023;BMP180;7086;48.116;11.580;2023-11-19T07:07:30;95144.00;;;14.60
14023;BMP180;7086;48.116;11.580;2023-11-19T07:09:57;95165.00;;;14.70
14023;BMP180;7086;48.116;11.580;2023-11-19T07:12:23;95110.00;;;14.70
14023;BMP180;7086;48.116;11.580;2023-11-19T07:14:52;95150.00;;;14.70
14023;BMP180;7086;48.116;11.580;2023-11-19T07:17:18;95150.00;;;14.70
14023;BMP180;7086;48.116;11.580;2023-11-19T07:19:46;95151.00;;;14.80
14023;BMP180;7086;48.116;11.580;2023-11-19T07:22:14;95146.00;;;14.70
14023;BMP180;7086;48.116;11.580;2023-11-19T07:24:41;95150.00;;;14.70
14023;BMP180;7086;48.116;11.580;2023-11-19T07:27:08;95125.00;;;14.80
14023;BMP180;7086;48.116;11.580;2023-11-19T07:29:35;95155.00;;;14.70
14023;BMP180;7086;48.116;11.580;2023-11-19T07:32:02;95090.00;;;14.90
14023;BMP180;7086;48.116;11.580;2023-11-19T07:34:30;95155.00;;;14.90
14023;BMP180;7086;48.116;11.580;2023-11-19T07:36:57;95154.00;;;14.90
14023;BMP180;7086;48.116;11.580;2023-11-19T07:39:29;95161.00;;;14.90
14023;BMP180;7086;48.116;11.580;2023-11-19T07:41:56;95170.00;;;14.90
14023;BMP180;7086;48.116;11.580;2023-11-19T07:44:22;95179.00;;;14.90
14023;BMP180;7086;48.116;11.580;2023-11-19T07:46:50;95208.00;;;15.00
14023;BMP180;7086;48.116;11.580;2023-11-19T07:49:16;95101.00;;;15.00
14023;BMP180;7086;48.116;11.580;2023-11-19T07:51:43;95172.00;;;15.00
14023;BMP180;7086;48.116;11.580;2023-11-19T07:54:10;95165.00;;;15.10
14023;BMP180;7086;48.116;11.580;2023-11-19T07:56:38;95179.00;;;15.10
14023;BMP180;7086;48.116;11.580;2023-11-19T07:59:05;95185.00;;;15.10
14023;BMP180;7086;48.116;11.580;2023-11-19T08:01:32;95191.00;;;15.00
14023;BMP180;7086;48.116;11.580;2023-11-19T08:03:59;95192.00;;;15.20
14023;BMP180;7086;48.116;11.580;2023-11-19T08:06:27;95177.00;;;15.20
14023;BMP180;7086;48.116;11.580;2023-11-19T08:08:54;95193.00;;;15.20
14023;BMP180;7086;48.116;11.580;2023-11-19T08:11:20;95170.00;;;15.20
14023;BMP180;7086;48.116;11.580;2023-11-19T08:13:49;95201.00;;;15.10
14023;BMP180;7086;48.116;11.580;2023-11-19T08:16:15;95172.00;;;15.30
14023;BMP180;7086;48.116;11.580;2023-11-19T08:18:42;95153.00;;;15.10
14023;BMP180;7086;48.116;11.580;2023-11-19T08:21:09;95170.00;;;15.20
14023;BMP180;7086;48.116;11.580;2023-11-19T08:23:36;95190.00;;;15.30
14023;BMP180;7086;48.116;11.580;2023-11-19T08:26:04;95180.00;;;15.40
14023;BMP180;7086;48.116;11.580;2023-11-19T08:28:31;95183.00;;;15.40
14023;BMP180;7086;48.116;11.580;2023-11-19T08:31:01;95186.00;;;15.40
14023;BMP180;7086;48.116;11.580;2023-11-19T08:33:29;95187.00;;;15.50
14023;BMP180;7086;48.116;11.580;2023-11-19T08:35:58;95193.00;;;15.50
14023;BMP180;7086;48.116;11.580;2023-11-19T08:38:26;95163.00;;;15.50
14023;BMP180;7086;48.116;11.580;2023-11-19T08:40:53;95187.00;;;15.60
14023;BMP180;7086;48.116;11.580;2023-11-19T08:43:24;95187.00;;;15.50
14023;BMP180;7086;48.116;11.580;2023-11-19T08:45:51;95163.00;;;15.50
14023;BMP180;7086;48.116;11.580;2023-11-19T08:48:20;95162.00;;;15.60
14023;BMP180;7086;48.116;11.580;2023-11-19T08:50:47;95169.00;;;15.50
14023;BMP180;7086;48.116;11.580;2023-11-19T08:53:13;95187.00;;;15.80
14023;BMP180;7086;48.116;11.580;2023-11-19T08:55:40;95139.00;;;15.80
14023;BMP180;7086;48.116;11.580;2023-11-19T08:58:07;95171.00;;;15.90
14023;BMP180;7086;48.116;11.580;2023-11-19T09:00:34;95150.00;;;15.90
14023;BMP180;7086;48.116;11.580;2023-11-19T09:03:01;95186.00;;;16.00
14023;BMP180;7086;48.116;11.580;2023-11-19T09:05:29;95190.00;;;16.00
14023;BMP180;7086;48.116;11.580;2023-11-19T09:07:56;95194.00;;;16.00
14023;BMP180;7086;48.116;11.580;2023-11-19T09:10:23;95210.00;;;16.00
14023;BMP180;7086;48.116;11.580;2023-11-19T09:12:50;95196.00;;;16.00
14023;BMP180;7086;48.116;11.580;2023-11-19T09:15:17;95172.00;;;16.00
14023;BMP180;7086;48.116;11.580;2023-11-19T09:17:43;95181.00;;;16.00
14023;BMP180;7086;48.116;11.580;2023-11-19T09:20:11;95187.00;;;16.10
14023;BMP180;7086;48.116;11.580;2023-11-19T09:22:42;95191.00;;;16.10
14023;BMP180;7086;48.116;11.580;2023-11-19T09:25:09;95211.00;;;15.80
14023;BMP180;7086;48.116;11.580;2023-11-19T09:27:36;95222.00;;;16.10
14023;BMP180;7086;48.116;11.580;2023-11-19T09:30:03;95217.00;;;16.20
14023;BMP180;7086;48.116;11.580;2023-11-19T09:32:32;95190.00;;;16.20
14023;BMP180;7086;48.116;11.580;2023-11-19T09:34:59;95173.00;;;16.10
14023;BMP180;7086;48.116;11.580;2023-11-19T09:37:26;95194.00;;;16.30
14023;BMP180;7086;48.116;11.580;2023-11-19T09:39:54;95160.00;;;16.30
14023;BMP180;7086;48.116;11.580;2023-11-19T09:42:23;95187.00;;;16.30
14023;BMP180;7086;48.116;11.580;2023-11-19T09:44:51;95158.00;;;16.40
14023;BMP180;7086;48.116;11.580;2023-11-19T09:47:19;95208.00;;;16.30
14023;BMP180;7086;48.116;11.580;2023-11-19T09:49:46;95178.00;;;16.40
14023;BMP180;7086;48.116;11.580;2023-11-19T09:52:14;95209.00;;;16.30
14023;BMP180;7086;48.116;11.580;2023-11-19T09:54:41;95172.00;;;16.20
14023;BMP180;7086;48.116;11.580;2023-11-19T09:57:09;95169.00;;;16.40
14023;BMP180;7086;48.116;11.580;2023-11-19T09:59:38;95121.00;;;16.40
14023;BMP180;7086;48.116;11.580;2023-11-19T10:02:07;95196.00;;;16.50
14023;BMP180;7086;48.116;11.580;2023-11-19T10:04:35;95183.00;;;16.50
14023;BMP180;7086;48.116;11.580;2023-11-19T10:07:03;95183.00;;;16.60
14023;BMP180;7086;48.116;11.580;2023-11-19T10:09:30;95095.00;;;16.60
14023;BMP180;7086;48.116;11.580;2023-11-19T10:11:57;95111.00;;;16.60
14023;BMP180;7086;48.116;11.580;2023-11-19T10:14:25;95167.00;;;16.80
14023;BMP180;7086;48.116;11.580;2023-11-19T10:16:54;95141.00;;;16.80
14023;BMP180;7086;48.116;11.580;2023-11-19T10:19:24;95092.00;;;16.90
14023;BMP180;7086;48.116;11.580;2023-11-19T10:21:51;95128.00;;;16.90
14023;BMP180;7086;48.116;11.580;2023-11-19T10:24:31;95166.00;;;17.00
14023;BMP180;7086;48.116;11.580;2023-11-19T10:26:58;95159.00;;;17.00
14023;BMP180;7086;48.116;11.580;2023-11-19T10:29:27;95174.00;;;17.00
14023;BMP180;7086;48.116;11.580;2023-11-19T10:31:56;95156.00;;;17.30
14023;BMP180;7086;48.116;11.580;2023-11-19T10:34:25;95171.00;;;17.40
14023;BMP180;7086;48.116;11.580;2023-11-19T10:36:52;95163.00;;;17.50
14023;BMP180;7086;48.116;11.580;2023-11-19T10:39:19;95154.00;;;17.70
14023;BMP180;7086;48.116;11.580;2023-11-19T10:41:46;95160.00;;;17.80
14023;BMP180;7086;48.116;11.580;2023-11-19T10:44:32;95140.00;;;17.90
14023;BMP180;7086;48.116;11.580;2023-11-19T10:47:01;95125.00;;;18.10
14023;BMP180;7086;48.116;11.580;2023-11-19T10:49:28;95129.00;;;18.30
14023;BMP180;7086;48.116;11.580;2023-11-19T10:51:55;95110.00;;;18.60
14023;BMP180;7086;48.116;11.580;2023-11-19T10:54:24;95162.00;;;19.00
14023;BMP180;7086;48.116;11.580;2023-11-19T10:56:59;95141.00;;;19.30
14023;BMP180;7086;48.116;11.580;2023-11-19T10:59:29;95100.00;;;19.50
14023;BMP180;7086;48.116;11.580;2023-11-19T11:02:01;95137.00;;;19.50
14023;BMP180;7086;48.116;11.580;2023-11-19T11:04:33;95090.00;;;19.40
14023;BMP180;7086;48.116;11.580;2023-11-19T11:07:05;95128.00;;;19.40
14023;BMP180;7086;48.116;11.580;2023-11-19T11:09:35;95109.00;;;19.40
14023;BMP180;7086;48.116;11.580;2023-11-19T11:12:04;95118.00;;;19.30
14023;BMP180;7086;48.116;11.580;2023-11-19T11:14:34;95119.00;;;19.20
14023;BMP180;7086;48.116;11.580;2023-11-19T11:17:09;95085.00;;;19.30
14023;BMP180;7086;48.116;11.580;2023-11-19T11:19:38;95109.00;;;19.30
14023;BMP180;7086;48.116;11.580;2023-11-19T11:22:07;95121.00;;;19.30
14023;BMP180;7086;48.116;11.580;2023-11-19T11:27:50;95077.00;;;19.40
14023;BMP180;7086;48.116;11.580;2023-11-19T11:30:28;95120.00;;;19.40
14023;BMP180;7086;48.116;11.580;2023-11-19T11:33:15;95073.00;;;19.40
14023;BMP180;7086;48.116;11.580;2023-11-19T11:35:53;95110.00;;;19.50
14023;BMP180;7086;48.116;11.580;2023-11-19T11:38:23;95123.00;;;19.50
14023;BMP180;7086;48.116;11.580;2023-11-19T11:41:15;95113.00;;;19.60
14023;BMP180;7086;48.116;11.580;2023-11-19T11:43:44;95094.00;;;19.60
14023;BMP180;7086;48.116;11.580;2023-11-19T11:49:13;95097.00;;;19.90
14023;BMP180;7086;48.116;11.580;2023-11-19T11:51:58;95089.00;;;20.00
14023;BMP180;7086;48.116;11.580;2023-11-19T11:54:28;95085.00;;;20.10
14023;BMP180;7086;48.116;11.580;2023-11-19T11:57:07;95080.00;;;20.10
14023;BMP180;7086;48.116;11.580;2023-11-19T11:59:48;95114.00;;;19.90
14023;BMP180;7086;48.116;11.580;2023-11-19T12:02:16;95078.00;;;19.90
14023;BMP180;7086;48.116;11.580;2023-11-19T12:04:48;95110.00;;;19.60
14023;BMP180;7086;48.116;11.580;2023-11-19T12:07:17;95100.00;;;19.70
14023;BMP180;7086;48.116;11.580;2023-11-19T12:09:47;95090.00;;;19.60
14023;BMP180;7086;48.116;11.580;2023-11-19T12:12:21;95097.00;;;19.60
14023;BMP180;7086;48.116;11.580;2023-11-19T12:15:05;95101.00;;;19.50
14023;BMP180;7086;48.116;11.580;2023-11-19T12:17:42;95095.00;;;19.50
14023;BMP180;7086;48.116;11.580;2023-11-19T12:20:16;95119.00;;;19.40
14023;BMP180;7086;48.116;11.580;2023-11-19T12:22:44;95107.00;;;19.30
14023;BMP180;7086;48.116;11.580;2023-11-19T12:25:12;95111.00;;;19.30
14023;BMP180;7086;48.116;11.580;2023-11-19T12:27:40;95081.00;;;19.20
14023;BMP180;7086;48.116;11.580;2023-11-19T12:30:08;95090.00;;;19.20
14023;BMP180;7086;48.116;11.580;2023-11-19T12:32:38;95097.00;;;19.10
14023;BMP180;7086;48.116;11.580;2023-11-19T12:35:07;95067.00;;;19.10
14023;BMP180;7086;48.116;11.580;2023-11-19T12:37:42;95090.00;;;19.10
14023;BMP180;7086;48.116;11.580;2023-11-19T12:40:14;95070.00;;;19.00
14023;BMP180;7086;48.116;11.580;2023-11-19T12:42:41;95045.00;;;18.70
14023;BMP180;7086;48.116;11.580;2023-11-19T12:45:09;95075.00;;;19.00
14023;BMP180;7086;48.116;11.580;2023-11-19T12:47:39;95070.00;;;18.80
14023;BMP180;7086;48.116;11.580;2023-11-19T12:50:06;95059.00;;;18.80
14023;BMP180;7086;48.116;11.580;2023-11-19T12:52:34;95033.00;;;18.80
14023;BMP180;7086;48.116;11.580;2023-11-19T12:55:02;95038.00;;;18.90
14023;BMP180;7086;48.116;11.580;2023-11-19T12:57:37;95063.00;;;18.80
14023;BMP180;7086;48.116;11.580;2023-11-19T13:00:05;95061.00;;;18.90
14023;BMP180;7086;48.116;11.580;2023-11-19T13:02:48;95047.00;;;18.90
14023;BMP180;7086;48.116;11.580;2023-11-19T13:05:25;95058.00;;;18.70
14023;BMP180;7086;48.116;11.580;2023-11-19T13:07:58;95054.00;;;18.80
14023;BMP180;7086;48.116;11.580;2023-11-19T13:10:27;95016.00;;;18.90
14023;BMP180;7086;48.116;11.580;2023-11-19T13:13:04;95052.00;;;18.90
14023;BMP180;7086;48.116;11.580;2023-11-19T13:15:32;95032.00;;;18.90
14023;BMP180;7086;48.116;11.580;2023-11-19T13:17:58;95015.00;;;18.80
14023;BMP180;7086;48.116;11.580;2023-11-19T13:20:26;95058.00;;;18.90
14023;BMP180;7086;48.116;11.580;2023-11-19T13:22:55;94968.00;;;18.90
14023;BMP180;7086;48.116;11.580;2023-11-19T13:25:22;95060.00;;;18.90
14023;BMP180;7086;48.116;11.580;2023-11-19T13:27:51;95073.00;;;18.90
14023;BMP180;7086;48.116;11.580;2023-11-19T13:30:18;95046.00;;;18.90
14023;BMP180;7086;48.116;11.580;2023-11-19T13:32:45;95059.00;;;19.00
14023;BMP180;7086;48.116;11.580;2023-11-19T13:35:13;95039.00;;;18.90
14023;BMP180;7086;48.116;11.580;2023-11-19T13:37:40;95006.00;;;19.00
14023;BMP180;7086;48.116;11.580;2023-11-19T13:40:08;95040.00;;;19.00
14023;BMP180;7086;48.116;11.580;2023-11-19T13:42:36;95029.00;;;18.90
14023;BMP180;7086;48.116;11.580;2023-11-19T13:45:08;95039.00;;;19.00
14023;BMP180;7086;48.116;11.580;2023-11-19T13:47:37;94997.00;;;18.90
14023;BMP180;7086;48.116;11.580;2023-11-19T13:50:08;95035.00;;;19.00
14023;BMP180;7086;48.116;11.580;2023-11-19T13:52:35;95033.00;;;18.90
14023;BMP180;7086;48.116;11.580;2023-11-19T13:55:05;95011.00;;;19.00
14023;BMP180;7086;48.116;11.580;2023-11-19T13:57:32;95047.00;;;18.90
14023;BMP180;7086;48.116;11.580;2023-11-19T14:00:00;95040.00;;;18.80
14023;BMP180;7086;48.116;11.580;2023-11-19T14:02:32;95043.00;;;18.90
14023;BMP180;7086;48.116;11.580;2023-11-19T14:04:59;95029.00;;;18.70
14023;BMP180;7086;48.116;11.580;2023-11-19T14:07:26;95004.00;;;18.80
14023;BMP180;7086;48.116;11.580;2023-11-19T14:09:55;95017.00;;;18.70
14023;BMP180;7086;48.116;11.580;2023-11-19T14:12:22;95024.00;;;18.70
14023;BMP180;7086;48.116;11.580;2023-11-19T14:14:49;95014.00;;;18.70
14023;BMP180;7086;48.116;11.580;2023-11-19T14:17:16;95017.00;;;18.60
14023;BMP180;7086;48.116;11.580;2023-11-19T14:19:45;95019.00;;;18.50
14023;BMP180;7086;48.116;11.580;2023-11-19T14:22:12;95022.00;;;18.50